Weather at Arnold Palmer Regional Airport

Public forecast

Using degrees Fahrenheit for public forecast. Weather courtesy of forecast.io.

Current aviation weather report (METAR) for Arnold Palmer Regional Airport

Report is more than 6 hours old.

2022/11/14 14:47 (retrieved 2 years ago)

KLBE 141447Z 33006KT 10SM SCT027 SCT035 OVC041 02/M04 A3038

Aviation forecast (TAF) for Arnold Palmer Regional Airport

Forecast is more than 12 hours old.

2023/02/22 20:39 Ammendment (retrieved 1 year ago)

TAF AMD KLBE 221937Z 2220/2318 09010KT P6SM OVC035 FM222200 16013KT P6SM BKN040 WS020/21040KT FM230300 20018G27KT P6SM BKN100 WS020/23050KT FM230600 22025G38KT 6SM -SHRA BR BKN040 WS020/23055KT FM230900 24024G37KT 6SM -SHRA BR BKN019 FM231200 24018G28KT P6SM BKN020